createdAt,value
2022-09-15T00:33:06.219Z,16.70
2022-09-15T00:35:56.471Z,16.80
2022-09-15T00:38:24.080Z,16.70
2022-09-15T00:41:02.147Z,16.70
2022-09-15T00:43:44.918Z,16.60
2022-09-15T00:47:19.682Z,16.60
2022-09-15T00:50:29.264Z,16.50
2022-09-15T01:03:04.958Z,16.50
2022-09-15T01:09:59.376Z,16.50
2022-09-15T01:12:58.196Z,16.50
2022-09-15T01:18:51.697Z,16.60
2022-09-15T01:21:49.268Z,16.60
2022-09-15T01:28:56.723Z,16.80
2022-09-15T01:32:20.841Z,16.80
2022-09-15T01:41:52.834Z,17.00
2022-09-15T01:44:38.466Z,17.00
2022-09-15T01:48:26.322Z,16.90
2022-09-15T01:51:31.389Z,16.90
2022-09-15T01:59:21.541Z,16.80
2022-09-15T02:05:47.986Z,16.80
2022-09-15T02:09:27.929Z,16.90
2022-09-15T02:14:13.443Z,17.00
2022-09-15T02:16:38.630Z,16.90
2022-09-15T02:22:29.258Z,17.10
2022-09-15T02:25:24.950Z,17.10
2022-09-15T02:32:25.184Z,17.00
2022-09-15T02:35:11.783Z,17.00
2022-09-15T02:38:39.883Z,16.90
2022-09-15T02:41:07.479Z,16.90
2022-09-15T02:43:35.003Z,17.00
2022-09-15T02:46:02.813Z,17.00
2022-09-15T02:49:11.143Z,16.90
2022-09-15T02:51:38.570Z,17.00
2022-09-15T02:59:34.776Z,16.90
2022-09-15T03:02:12.538Z,16.90
2022-09-15T03:04:50.791Z,16.90
2022-09-15T03:07:27.152Z,16.80
2022-09-15T03:09:59.875Z,16.80
2022-09-15T03:13:00.331Z,16.70
2022-09-15T03:15:28.362Z,16.70
2022-09-15T03:18:01.000Z,16.80
2022-09-15T03:20:33.274Z,16.60
2022-09-15T03:23:51.497Z,16.60
2022-09-15T03:26:31.104Z,16.60
2022-09-15T03:29:00.180Z,16.70
2022-09-15T03:31:28.029Z,16.60
2022-09-15T03:33:56.167Z,16.60
2022-09-15T03:36:27.117Z,16.50
2022-09-15T03:39:06.865Z,16.50
2022-09-15T03:41:34.404Z,16.50
2022-09-15T03:44:02.100Z,16.40
2022-09-15T03:46:30.240Z,16.50
2022-09-15T03:49:10.212Z,16.50
2022-09-15T03:51:38.241Z,16.50
2022-09-15T03:54:44.410Z,16.70
2022-09-15T03:57:11.822Z,16.70
2022-09-15T03:59:46.501Z,16.60
2022-09-15T04:02:41.197Z,16.60
2022-09-15T04:05:09.331Z,16.70
2022-09-15T04:08:24.985Z,16.80
2022-09-15T04:11:33.557Z,16.60
2022-09-15T04:14:18.913Z,16.60
2022-09-15T04:17:18.590Z,16.60
2022-09-15T04:20:31.006Z,16.70
2022-09-15T04:23:12.115Z,16.70
2022-09-15T04:28:55.682Z,16.80
2022-09-15T04:31:23.216Z,16.70
2022-09-15T04:33:56.330Z,16.80
2022-09-15T04:36:27.320Z,16.90
2022-09-15T04:38:55.347Z,16.80
2022-09-15T04:41:23.209Z,16.80
2022-09-15T04:43:59.707Z,16.90
2022-09-15T04:46:28.871Z,16.80
2022-09-15T04:48:58.979Z,16.90
2022-09-15T04:55:41.231Z,17.00
2022-09-15T04:58:09.330Z,16.90
2022-09-15T05:00:43.530Z,16.90
2022-09-15T05:03:13.071Z,17.00
2022-09-15T05:05:41.413Z,16.90
2022-09-15T05:08:09.023Z,16.90
2022-09-15T05:11:23.467Z,16.90
2022-09-15T05:14:02.087Z,16.80
2022-09-15T05:16:35.427Z,16.90
2022-09-15T05:19:05.849Z,16.90
2022-09-15T05:21:33.806Z,16.90
2022-09-15T05:24:34.547Z,17.00
2022-09-15T05:27:02.464Z,17.00
2022-09-15T05:29:30.984Z,17.10
2022-09-15T05:32:41.694Z,17.10
2022-09-15T05:35:28.072Z,17.10
2022-09-15T05:38:13.964Z,17.10
2022-09-15T05:41:05.197Z,17.10
2022-09-15T05:43:44.124Z,17.10
2022-09-15T05:46:12.375Z,17.00
2022-09-15T05:48:43.704Z,16.90
2022-09-15T05:51:17.820Z,16.80
2022-09-15T05:54:34.932Z,16.90
2022-09-15T05:57:02.406Z,16.70
2022-09-15T06:02:58.020Z,16.70
2022-09-15T06:06:02.797Z,16.70
2022-09-15T06:08:37.703Z,16.60
2022-09-15T06:11:30.793Z,16.70
2022-09-15T06:14:15.015Z,16.60
2022-09-15T06:16:42.669Z,16.50
2022-09-15T06:19:25.310Z,16.40
2022-09-15T06:22:30.134Z,16.50
2022-09-15T06:25:06.869Z,16.60
2022-09-15T06:31:09.689Z,16.60
2022-09-15T06:33:45.768Z,16.70
2022-09-15T06:36:27.453Z,16.90
2022-09-15T06:56:47.294Z,17.30
2022-09-15T07:20:13.264Z,17.20
2022-09-15T07:22:56.755Z,17.20
2022-09-15T07:25:32.871Z,17.20
2022-09-15T07:28:05.868Z,17.10
2022-09-15T07:30:35.297Z,17.00
2022-09-15T07:33:05.831Z,16.90
2022-09-15T07:35:33.647Z,16.80
2022-09-15T07:38:06.130Z,16.70
2022-09-15T07:40:38.115Z,16.70
2022-09-15T07:43:13.939Z,16.60
2022-09-15T07:45:41.660Z,16.60
2022-09-15T07:48:09.099Z,16.40
2022-09-15T07:50:42.789Z,16.50
2022-09-15T07:53:24.106Z,16.50
2022-09-15T07:56:03.120Z,16.40
2022-09-15T07:58:33.233Z,16.50
2022-09-15T08:01:11.302Z,16.60
2022-09-15T08:03:48.811Z,16.60
2022-09-15T08:06:28.519Z,16.70
2022-09-15T08:09:00.481Z,16.90
2022-09-15T08:11:32.284Z,17.00
2022-09-15T08:14:03.521Z,17.10
2022-09-15T08:16:31.268Z,17.20
2022-09-15T08:19:01.174Z,17.30
2022-09-15T08:21:29.136Z,17.40
2022-09-15T08:24:03.068Z,17.50
2022-09-15T08:26:38.428Z,17.60
2022-09-15T08:29:05.900Z,17.60
2022-09-15T08:32:46.581Z,17.70
2022-09-15T08:39:39.501Z,17.80
2022-09-15T08:42:35.042Z,18.00
2022-09-15T08:59:49.878Z,18.30
2022-09-15T09:11:18.359Z,18.60
2022-09-15T09:14:27.734Z,18.70
2022-09-15T09:21:26.345Z,19.00
2022-09-15T09:35:24.934Z,19.10
2022-09-15T09:38:44.892Z,19.40
2022-09-15T09:42:34.507Z,19.60
2022-09-15T09:45:13.399Z,20.00
2022-09-15T09:47:52.731Z,20.10
2022-09-15T09:50:32.286Z,20.10
2022-09-15T09:59:26.192Z,20.10
2022-09-15T10:02:18.881Z,20.20
2022-09-15T10:05:14.594Z,20.10
2022-09-15T10:14:03.848Z,20.10
2022-09-15T10:16:37.747Z,20.10
2022-09-15T10:19:05.263Z,20.20
2022-09-15T10:21:32.688Z,20.30
2022-09-15T10:25:58.571Z,20.40
2022-09-15T10:28:30.899Z,20.50
2022-09-15T10:31:44.153Z,20.80
2022-09-15T10:34:28.365Z,20.70
2022-09-15T10:37:27.456Z,20.60
2022-09-15T10:40:04.586Z,20.60
2022-09-15T10:43:04.425Z,20.30
2022-09-15T10:45:49.148Z,20.50
2022-09-15T10:48:34.166Z,20.60
2022-09-15T10:51:59.915Z,20.50
2022-09-15T10:54:57.549Z,20.80
2022-09-15T11:02:19.061Z,21.10
2022-09-15T11:05:20.559Z,20.70
2022-09-15T11:08:02.341Z,20.50
2022-09-15T11:11:15.861Z,20.40
2022-09-15T11:18:42.454Z,20.40
2022-09-15T11:21:39.165Z,20.40
2022-09-15T11:24:48.576Z,20.30
2022-09-15T11:27:44.425Z,20.30
2022-09-15T11:30:37.730Z,20.40
2022-09-15T11:33:31.121Z,20.30
2022-09-15T11:36:09.531Z,20.30
2022-09-15T11:38:53.938Z,20.50
2022-09-15T11:41:33.235Z,20.60
2022-09-15T11:44:23.610Z,21.00
2022-09-15T11:47:00.056Z,21.30
2022-09-15T11:49:45.426Z,21.30
2022-09-15T11:53:18.750Z,21.00
2022-09-15T11:56:03.640Z,20.80
2022-09-15T11:58:45.614Z,20.80
2022-09-15T12:01:45.247Z,20.50
2022-09-15T12:04:54.222Z,20.40
2022-09-15T12:07:44.783Z,20.40
2022-09-15T12:13:58.815Z,20.70
2022-09-15T12:16:27.715Z,20.80
2022-09-15T12:19:23.928Z,20.70
2022-09-15T12:23:15.756Z,20.40
2022-09-15T12:29:03.822Z,20.20
2022-09-15T12:31:48.910Z,20.10
2022-09-15T12:34:27.800Z,19.90
2022-09-15T12:37:50.986Z,19.80
2022-09-15T12:40:30.279Z,19.70
2022-09-15T12:43:21.514Z,19.60
2022-09-15T12:46:39.792Z,19.50
2022-09-15T12:49:19.800Z,19.50
2022-09-15T12:52:28.069Z,19.60
2022-09-15T12:55:37.868Z,19.70
2022-09-15T12:58:27.489Z,19.90
2022-09-15T13:01:31.649Z,20.20
2022-09-15T13:04:05.204Z,20.50
2022-09-15T13:06:40.676Z,20.30
2022-09-15T13:09:28.385Z,20.40
2022-09-15T13:12:05.353Z,20.10
2022-09-15T13:14:37.620Z,19.80
2022-09-15T13:17:25.150Z,19.80
2022-09-15T13:19:56.277Z,19.80
2022-09-15T13:22:39.809Z,20.00
2022-09-15T13:25:15.478Z,20.20
2022-09-15T13:27:54.805Z,20.00
2022-09-15T13:30:40.463Z,20.20
2022-09-15T13:40:02.675Z,20.40
2022-09-15T13:42:53.054Z,20.50
2022-09-15T13:45:26.669Z,20.50
2022-09-15T13:52:15.562Z,20.20
2022-09-15T13:55:18.568Z,20.30
2022-09-15T14:01:03.930Z,20.30
2022-09-15T14:03:51.983Z,20.30
2022-09-15T14:06:22.238Z,20.10
2022-09-15T14:08:55.165Z,20.00
2022-09-15T14:11:28.123Z,19.90
2022-09-15T14:13:57.472Z,19.90
2022-09-15T14:16:29.339Z,19.90
2022-09-15T14:19:04.477Z,19.80
2022-09-15T14:21:56.194Z,19.70
2022-09-15T14:24:29.488Z,19.90
2022-09-15T14:27:03.310Z,19.90
2022-09-15T14:30:05.107Z,19.80
2022-09-15T14:32:38.514Z,19.60
2022-09-15T14:35:09.194Z,19.60
2022-09-15T14:37:37.053Z,19.60
2022-09-15T14:40:37.883Z,19.60
2022-09-15T14:43:32.779Z,19.70
2022-09-15T14:46:20.827Z,19.70
2022-09-15T14:48:51.015Z,19.50
2022-09-15T14:51:33.048Z,19.40
2022-09-15T14:54:28.537Z,19.10
2022-09-15T14:57:02.673Z,18.50
2022-09-15T14:59:45.840Z,17.80
2022-09-15T15:02:51.048Z,17.40
2022-09-15T15:05:24.779Z,17.10
2022-09-15T15:07:53.096Z,17.00
2022-09-15T15:10:35.724Z,17.00
2022-09-15T15:13:17.010Z,16.90
2022-09-15T15:15:48.045Z,16.90
2022-09-15T15:19:11.957Z,16.90
2022-09-15T15:21:39.477Z,16.90
2022-09-15T15:24:13.339Z,16.90
2022-09-15T15:27:23.597Z,16.80
2022-09-15T15:29:59.094Z,16.50
2022-09-15T15:32:26.638Z,16.20
2022-09-15T15:35:01.178Z,16.00
2022-09-15T15:37:40.726Z,15.90
2022-09-15T15:40:17.317Z,15.90
2022-09-15T15:42:59.372Z,15.90
2022-09-15T15:45:41.561Z,15.70
2022-09-15T15:48:14.111Z,15.80
2022-09-15T15:50:41.601Z,15.70
2022-09-15T15:53:48.147Z,15.60
2022-09-15T15:56:25.591Z,15.60
2022-09-15T15:58:53.073Z,15.50
2022-09-15T16:01:26.645Z,15.60
2022-09-15T16:03:54.311Z,15.50
2022-09-15T16:06:22.418Z,15.40
2022-09-15T16:09:15.573Z,15.40
2022-09-15T16:12:54.431Z,15.40
2022-09-15T16:20:29.081Z,15.40
2022-09-15T16:42:57.907Z,15.40
2022-09-15T16:46:51.985Z,15.40
2022-09-15T16:54:18.644Z,15.20
2022-09-15T16:57:28.260Z,15.30
2022-09-15T17:00:03.403Z,15.20
2022-09-15T17:03:07.404Z,15.20
2022-09-15T17:16:43.532Z,14.80
2022-09-15T17:19:26.385Z,14.70
2022-09-15T17:22:50.099Z,14.60
2022-09-15T17:29:35.640Z,14.50
2022-09-15T17:40:39.713Z,14.20
2022-09-15T17:46:33.594Z,14.00
2022-09-15T17:50:46.761Z,13.80
2022-09-15T17:53:26.844Z,13.70
2022-09-15T17:55:57.453Z,13.80
2022-09-15T17:58:31.435Z,13.80
2022-09-15T18:01:27.246Z,13.80
2022-09-15T18:04:01.373Z,13.70
2022-09-15T18:06:28.802Z,13.60
2022-09-15T18:09:09.146Z,13.60
2022-09-15T18:11:40.441Z,13.60
2022-09-15T18:14:09.517Z,13.60
2022-09-15T18:16:37.154Z,13.40
2022-09-15T18:19:05.822Z,13.40
2022-09-15T18:21:33.532Z,13.40
2022-09-15T18:24:11.474Z,13.50
2022-09-15T18:26:39.302Z,13.30
2022-09-15T18:29:11.814Z,13.40
2022-09-15T18:31:39.214Z,13.30
2022-09-15T18:34:07.529Z,13.30
2022-09-15T18:36:34.922Z,13.30
2022-09-15T18:39:02.570Z,13.30
2022-09-15T18:41:30.222Z,13.30
2022-09-15T18:43:57.714Z,13.30
2022-09-15T18:46:31.003Z,13.30
2022-09-15T18:48:59.233Z,13.30
2022-09-15T18:51:34.838Z,13.20
2022-09-15T18:54:31.783Z,13.20
2022-09-15T18:56:59.363Z,13.20
2022-09-15T18:59:38.606Z,13.10
2022-09-15T19:02:07.545Z,13.10
2022-09-15T19:04:40.437Z,13.10
2022-09-15T19:07:09.698Z,13.10
2022-09-15T19:09:37.067Z,13.00
2022-09-15T19:12:05.156Z,13.00
2022-09-15T19:14:32.652Z,13.00
2022-09-15T19:17:00.112Z,13.00
2022-09-15T19:19:27.688Z,13.00
2022-09-15T19:21:55.252Z,13.00
2022-09-15T19:24:22.808Z,13.00
2022-09-15T19:26:52.124Z,13.00
2022-09-15T19:29:19.642Z,13.00
2022-09-15T19:31:47.212Z,13.10
2022-09-15T19:34:14.824Z,13.00
2022-09-15T19:36:42.168Z,13.10
2022-09-15T19:39:12.050Z,13.10
2022-09-15T19:41:39.417Z,13.10
2022-09-15T19:44:10.612Z,13.10
2022-09-15T19:46:38.292Z,13.10
2022-09-15T19:49:06.156Z,13.10
2022-09-15T19:51:33.820Z,13.00
2022-09-15T19:54:07.748Z,13.10
2022-09-15T19:56:36.458Z,13.10
2022-09-15T19:59:06.304Z,13.20
2022-09-15T20:01:34.127Z,13.20
2022-09-15T20:04:01.945Z,13.20
2022-09-15T20:06:32.655Z,13.20
2022-09-15T20:09:00.466Z,13.20
2022-09-15T20:11:29.836Z,13.20
2022-09-15T20:13:57.817Z,13.20
2022-09-15T20:16:25.733Z,13.30
2022-09-15T20:18:53.981Z,13.20
2022-09-15T20:21:45.995Z,13.20
2022-09-15T20:24:12.557Z,13.20
2022-09-15T20:26:39.897Z,13.30
2022-09-15T20:29:07.729Z,13.20
2022-09-15T20:31:35.119Z,13.20
2022-09-15T20:34:03.130Z,13.20
2022-09-15T20:36:33.855Z,13.10
2022-09-15T20:39:03.249Z,13.20
2022-09-15T20:41:33.954Z,13.10
2022-09-15T20:44:01.572Z,13.10
2022-09-15T20:46:29.342Z,13.10
2022-09-15T20:48:56.685Z,13.00
2022-09-15T20:51:27.895Z,13.00
2022-09-15T20:55:07.518Z,13.00
2022-09-15T20:57:34.945Z,13.00
2022-09-15T21:00:04.805Z,13.00
2022-09-15T21:02:32.203Z,13.00
2022-09-15T21:04:59.514Z,12.90
2022-09-15T21:07:26.946Z,12.90
2022-09-15T21:09:54.319Z,12.90
2022-09-15T21:12:21.922Z,12.90
2022-09-15T21:15:30.647Z,12.90
2022-09-15T21:18:12.418Z,12.80
2022-09-15T21:21:16.394Z,12.80
2022-09-15T21:23:55.115Z,12.80
2022-09-15T21:26:24.762Z,12.80
2022-09-15T21:28:53.319Z,12.80
2022-09-15T21:31:26.488Z,12.80
2022-09-15T21:33:54.824Z,12.70
2022-09-15T21:36:26.886Z,12.70
2022-09-15T21:38:56.348Z,12.70
2022-09-15T21:41:26.097Z,12.70
2022-09-15T21:43:54.748Z,12.70
2022-09-15T21:46:24.926Z,12.70
2022-09-15T21:48:52.731Z,12.70
2022-09-15T21:51:24.529Z,12.70
2022-09-15T21:53:54.292Z,12.70
2022-09-15T21:56:22.790Z,12.70
2022-09-15T21:58:50.734Z,12.70
2022-09-15T22:01:27.793Z,12.80
2022-09-15T22:04:15.593Z,12.80
2022-09-15T22:06:43.160Z,12.80
2022-09-15T22:09:14.827Z,12.80
2022-09-15T22:11:42.724Z,12.90
2022-09-15T22:14:10.374Z,12.90
2022-09-15T22:16:39.222Z,12.80
2022-09-15T22:19:09.573Z,12.80
2022-09-15T22:21:41.386Z,12.80
2022-09-15T22:24:13.063Z,12.80
2022-09-15T22:26:43.582Z,12.70
2022-09-15T22:29:11.588Z,12.60
2022-09-15T22:31:39.253Z,12.70
2022-09-15T22:34:06.707Z,12.60
2022-09-15T22:36:34.229Z,12.70
2022-09-15T22:39:05.825Z,12.70
2022-09-15T22:41:35.888Z,12.70
2022-09-15T22:44:04.682Z,12.80
2022-09-15T22:46:32.494Z,12.70
2022-09-15T22:49:00.169Z,12.80
2022-09-15T22:51:27.597Z,12.80
2022-09-15T22:54:30.769Z,12.90
2022-09-15T22:56:58.126Z,12.80
2022-09-15T22:59:25.782Z,12.80
2022-09-15T23:01:53.660Z,12.80
2022-09-15T23:04:21.371Z,12.80
2022-09-15T23:06:51.675Z,12.80
2022-09-15T23:09:19.030Z,12.80
2022-09-15T23:11:46.422Z,12.70
2022-09-15T23:14:15.798Z,12.70
2022-09-15T23:16:43.889Z,12.70
2022-09-15T23:19:14.669Z,12.80
2022-09-15T23:21:42.062Z,12.70
2022-09-15T23:25:48.678Z,12.70
2022-09-15T23:28:17.203Z,12.70
2022-09-15T23:30:44.758Z,12.60
2022-09-15T23:33:19.444Z,12.60
2022-09-15T23:35:51.346Z,12.70
2022-09-15T23:38:23.443Z,12.70
2022-09-15T23:40:51.235Z,12.70
2022-09-15T23:43:23.399Z,12.70
2022-09-15T23:45:53.493Z,12.70
2022-09-15T23:48:26.929Z,12.70
2022-09-15T23:50:57.258Z,12.70
2022-09-15T23:53:36.652Z,12.60
2022-09-15T23:56:10.791Z,12.60
2022-09-15T23:58:39.121Z,12.60
